createdAt,value
2018-02-14T00:02:24.121Z,97199.34
2018-02-14T00:04:55.217Z,97199.25
2018-02-14T00:07:26.195Z,97195.19
2018-02-14T00:09:57.213Z,97199.34
2018-02-14T00:12:28.155Z,97203.22
2018-02-14T00:14:59.261Z,97203.33
2018-02-14T00:17:30.258Z,97205.28
2018-02-14T00:20:01.256Z,97204.94
2018-02-14T00:22:32.272Z,97205.02
2018-02-14T00:25:03.277Z,97204.88
2018-02-14T00:27:34.306Z,97205.45
2018-02-14T00:30:05.303Z,97211.58
2018-02-14T00:32:36.458Z,97204.64
2018-02-14T00:35:07.417Z,97203.95
2018-02-14T00:37:38.462Z,97213.11
2018-02-14T00:40:09.449Z,97212.30
2018-02-14T00:42:40.480Z,97215.74
2018-02-14T00:45:11.442Z,97211.81
2018-02-14T00:47:42.480Z,97216.97
2018-02-14T00:50:13.431Z,97214.80
2018-02-14T00:52:44.502Z,97219.35
2018-02-14T00:55:15.496Z,97212.50
2018-02-14T00:57:46.481Z,97230.66
2018-02-14T01:00:17.452Z,97224.60
2018-02-14T01:02:48.466Z,97227.98
2018-02-14T01:05:19.476Z,97226.46
2018-02-14T01:07:50.512Z,97233.72
2018-02-14T01:10:21.497Z,97230.56
2018-02-14T01:12:52.529Z,97230.56
2018-02-14T01:15:23.599Z,97227.78
2018-02-14T01:17:54.633Z,97235.84
2018-02-14T01:20:31.713Z,97229.28
2018-02-14T01:23:02.710Z,97241.15
2018-02-14T01:25:33.717Z,97240.80
2018-02-14T01:28:04.727Z,97240.11
2018-02-14T01:30:35.729Z,97236.47
2018-02-14T01:33:06.738Z,97241.23
2018-02-14T01:35:37.744Z,97239.45
2018-02-14T01:38:08.790Z,97238.09
2018-02-14T01:40:39.765Z,97241.08
2018-02-14T01:43:10.849Z,97245.99
2018-02-14T01:45:41.840Z,97242.29
2018-02-14T01:48:12.869Z,97243.81
2018-02-14T01:50:43.826Z,97249.91
2018-02-14T01:53:14.843Z,97246.45
2018-02-14T01:55:45.867Z,97248.14
2018-02-14T01:58:16.859Z,97260.16
2018-02-14T02:00:47.869Z,97262.73
2018-02-14T02:03:18.865Z,97258.80
2018-02-14T02:05:49.818Z,97265.31
2018-02-14T02:08:27.795Z,97265.00
2018-02-14T02:10:58.791Z,97262.44
2018-02-14T02:13:29.803Z,97267.69
2018-02-14T02:16:00.987Z,97266.31
2018-02-14T02:18:31.955Z,97270.90
2018-02-14T02:21:03.004Z,97268.72
2018-02-14T02:23:34.197Z,97276.38
2018-02-14T02:26:05.202Z,97273.80
2018-02-14T02:28:36.273Z,97270.90
2018-02-14T02:31:07.286Z,97271.47
2018-02-14T02:33:38.258Z,97273.56
2018-02-14T02:36:09.280Z,97268.40
2018-02-14T02:38:40.279Z,97273.21
2018-02-14T02:41:11.250Z,97269.91
2018-02-14T02:43:42.299Z,97267.33
2018-02-14T02:46:13.236Z,97264.74
2018-02-14T02:48:44.246Z,97261.53
2018-02-14T02:51:15.187Z,97260.52
2018-02-14T02:53:46.183Z,97262.55
2018-02-14T02:56:17.173Z,97255.36
2018-02-14T02:58:48.173Z,97259.88
2018-02-14T03:01:19.183Z,97263.40
2018-02-14T03:03:50.197Z,97263.56
2018-02-14T03:06:21.161Z,97260.80
2018-02-14T03:08:52.207Z,97263.45
2018-02-14T03:11:23.195Z,97265.88
2018-02-14T03:13:54.216Z,97265.17
2018-02-14T03:16:25.267Z,97270.36
2018-02-14T03:18:56.295Z,97277.83
2018-02-14T03:21:27.239Z,97277.02
2018-02-14T03:23:58.225Z,97276.66
2018-02-14T03:26:29.276Z,97279.52
2018-02-14T03:29:00.266Z,97282.27
2018-02-14T03:31:31.266Z,97278.63
2018-02-14T03:34:02.225Z,97283.14
2018-02-14T03:36:33.213Z,97291.05
2018-02-14T03:39:04.203Z,97289.67
2018-02-14T03:41:35.251Z,97299.59
2018-02-14T03:44:06.241Z,97305.56
2018-02-14T03:46:37.231Z,97304.42
2018-02-14T03:49:08.272Z,97311.11
2018-02-14T03:51:39.232Z,97310.71
2018-02-14T03:54:10.289Z,97312.97
2018-02-14T03:56:41.256Z,97315.72
2018-02-14T03:59:12.310Z,97319.09
2018-02-14T04:01:44.189Z,97322.44
2018-02-14T04:04:15.189Z,97335.98
2018-02-14T04:06:46.163Z,97325.66
2018-02-14T04:09:17.145Z,97332.75
2018-02-14T04:11:48.136Z,97335.63
2018-02-14T04:14:19.152Z,97341.70
2018-02-14T04:16:50.124Z,97345.02
2018-02-14T04:19:21.137Z,97351.95
2018-02-14T04:21:52.139Z,97353.64
2018-02-14T04:24:23.167Z,97360.00
2018-02-14T04:26:54.131Z,97362.10
2018-02-14T04:29:25.298Z,97362.67
2018-02-14T04:31:56.295Z,97372.42
2018-02-14T04:34:27.332Z,97369.84
2018-02-14T04:36:58.333Z,97375.73
2018-02-14T04:39:29.349Z,97373.64
2018-02-14T04:42:00.366Z,97379.69
2018-02-14T04:44:31.332Z,97385.69
2018-02-14T04:47:02.332Z,97386.41
2018-02-14T04:49:33.343Z,97391.33
2018-02-14T04:52:06.351Z,97389.31
2018-02-14T04:54:37.381Z,97392.45
2018-02-14T04:57:08.392Z,97393.21
2018-02-14T04:59:39.344Z,97393.53
2018-02-14T05:02:10.324Z,97398.86
2018-02-14T05:04:41.325Z,97398.70
2018-02-14T05:07:12.336Z,97400.95
2018-02-14T05:09:43.285Z,97405.02
2018-02-14T05:12:14.275Z,97415.86
2018-02-14T05:14:45.310Z,97412.80
2018-02-14T05:17:16.319Z,97419.89
2018-02-14T05:19:47.346Z,97427.39
2018-02-14T05:22:18.347Z,97429.92
2018-02-14T05:24:49.380Z,97436.28
2018-02-14T05:27:20.386Z,97436.45
2018-02-14T05:29:51.412Z,97439.42
2018-02-14T05:32:22.443Z,97440.55
2018-02-14T05:34:53.495Z,97443.54
2018-02-14T05:37:24.517Z,97443.78
2018-02-14T05:39:55.489Z,97442.97
2018-02-14T05:42:26.467Z,97449.02
2018-02-14T05:44:57.439Z,97454.83
2018-02-14T05:47:28.450Z,97456.03
2018-02-14T05:49:59.416Z,97463.77
2018-02-14T05:52:30.411Z,97466.52
2018-02-14T05:55:01.380Z,97472.53
2018-02-14T05:57:32.389Z,97479.47
2018-02-14T06:00:03.445Z,97478.06
2018-02-14T06:02:34.380Z,97482.69
2018-02-14T06:05:05.402Z,97489.21
2018-02-14T06:07:36.382Z,97490.58
2018-02-14T06:10:07.362Z,97497.19
2018-02-14T06:12:38.496Z,97496.87
2018-02-14T06:15:09.616Z,97501.48
2018-02-14T06:17:40.596Z,97503.69
2018-02-14T06:20:11.552Z,97504.16
2018-02-14T06:22:42.645Z,97509.27
2018-02-14T06:25:13.627Z,97512.41
2018-02-14T06:27:44.580Z,97520.05
2018-02-14T06:30:15.573Z,97519.75
2018-02-14T06:32:46.601Z,97527.23
2018-02-14T06:35:17.586Z,97530.41
2018-02-14T06:37:48.580Z,97532.31
2018-02-14T06:40:19.538Z,97538.13
2018-02-14T06:42:50.525Z,97538.98
2018-02-14T06:45:21.511Z,97543.89
2018-02-14T06:47:52.508Z,97548.71
2018-02-14T06:50:23.513Z,97549.53
2018-02-14T06:52:56.341Z,97553.94
2018-02-14T06:55:27.392Z,97549.81
2018-02-14T06:57:58.378Z,97556.48
2018-02-14T07:00:29.777Z,97552.35
2018-02-14T07:03:00.800Z,97561.20
2018-02-14T07:05:31.808Z,97568.43
2018-02-14T07:08:02.804Z,97564.64
2018-02-14T07:10:33.765Z,97564.89
2018-02-14T07:13:04.759Z,97568.89
2018-02-14T07:15:35.798Z,97569.97
2018-02-14T07:18:06.820Z,97573.81
2018-02-14T07:20:37.785Z,97573.38
2018-02-14T07:23:08.857Z,97581.05
2018-02-14T07:25:39.898Z,97584.72
2018-02-14T07:28:10.872Z,97591.71
2018-02-14T07:30:41.867Z,97596.09
2018-02-14T07:33:12.867Z,97600.61
2018-02-14T07:35:43.870Z,97597.09
2018-02-14T07:38:14.911Z,97605.66
2018-02-14T07:40:45.912Z,97612.28
2018-02-14T07:43:16.944Z,97604.48
2018-02-14T07:45:47.956Z,97607.50
2018-02-14T07:48:18.942Z,97614.00
2018-02-14T07:50:49.939Z,97620.74
2018-02-14T07:53:20.924Z,97622.55
2018-02-14T07:55:51.895Z,97627.91
2018-02-14T07:58:22.895Z,97623.69
2018-02-14T08:00:53.891Z,97629.06
2018-02-14T08:03:24.900Z,97631.37
2018-02-14T08:05:55.908Z,97634.33
2018-02-14T08:08:26.941Z,97629.66
2018-02-14T08:10:57.921Z,97636.72
2018-02-14T08:13:29.466Z,97639.43
2018-02-14T08:16:00.507Z,97640.98
2018-02-14T08:18:31.509Z,97642.74
2018-02-14T08:21:02.523Z,97643.19
2018-02-14T08:23:33.494Z,97642.38
2018-02-14T08:26:04.533Z,97641.62
2018-02-14T08:28:37.087Z,97639.05
2018-02-14T08:31:08.119Z,97634.86
2018-02-14T08:33:39.106Z,97641.63
2018-02-14T08:36:10.111Z,97647.84
2018-02-14T08:38:41.117Z,97638.88
2018-02-14T08:41:12.137Z,97633.30
2018-02-14T08:43:43.165Z,97623.73
2018-02-14T08:46:14.151Z,97623.41
2018-02-14T08:48:45.120Z,97611.88
2018-02-14T08:51:16.146Z,97598.69
2018-02-14T08:53:47.112Z,97596.17
2018-02-14T08:56:18.096Z,97613.55
2018-02-14T08:58:49.056Z,97603.84
2018-02-14T09:01:20.037Z,97607.50
2018-02-14T09:03:51.032Z,97598.76
2018-02-14T09:06:22.000Z,97597.31
2018-02-14T09:08:53.031Z,97601.42
2018-02-14T09:11:24.041Z,97598.56
2018-02-14T09:13:55.011Z,97600.94
2018-02-14T09:16:25.960Z,97601.95
2018-02-14T09:18:56.937Z,97602.33
2018-02-14T09:21:27.961Z,97596.97
2018-02-14T09:23:58.952Z,97604.69
2018-02-14T09:26:29.975Z,97610.01
2018-02-14T09:29:01.044Z,97611.14
2018-02-14T09:31:32.316Z,97609.02
2018-02-14T09:34:03.332Z,97614.94
2018-02-14T09:36:34.299Z,97610.69
2018-02-14T09:39:05.350Z,97613.41
2018-02-14T09:41:36.357Z,97614.81
2018-02-14T09:44:07.405Z,97609.91
2018-02-14T09:46:38.402Z,97607.63
2018-02-14T09:49:09.458Z,97615.92
2018-02-14T09:51:40.420Z,97621.66
2018-02-14T09:54:11.420Z,97622.14
2018-02-14T09:56:42.403Z,97626.73
2018-02-14T09:59:13.398Z,97620.64
2018-02-14T10:01:44.382Z,97620.02
2018-02-14T10:04:15.472Z,97617.68
2018-02-14T10:06:46.488Z,97618.97
2018-02-14T10:09:17.487Z,97617.52
2018-02-14T10:11:48.456Z,97621.92
2018-02-14T10:14:19.474Z,97621.64
2018-02-14T10:16:50.497Z,97621.73
2018-02-14T10:19:22.413Z,97626.23
2018-02-14T10:21:53.371Z,97634.00
2018-02-14T10:24:24.352Z,97622.83
2018-02-14T10:26:55.311Z,97624.37
2018-02-14T10:29:26.345Z,97627.58
2018-02-14T10:31:57.299Z,97629.63
2018-02-14T10:34:28.321Z,97629.08
2018-02-14T10:36:59.316Z,97625.05
2018-02-14T10:39:30.301Z,97631.36
2018-02-14T10:42:01.328Z,97632.52
2018-02-14T10:44:32.340Z,97630.37
2018-02-14T10:47:03.342Z,97634.32
2018-02-14T10:49:34.347Z,97641.83
2018-02-14T10:52:05.325Z,97640.09
2018-02-14T10:54:36.298Z,97639.59
2018-02-14T10:57:07.257Z,97641.90
2018-02-14T10:59:38.225Z,97639.14
2018-02-14T11:02:10.146Z,97645.43
2018-02-14T11:04:47.206Z,97646.44
2018-02-14T11:07:18.220Z,97645.14
2018-02-14T11:09:49.247Z,97646.55
2018-02-14T11:12:20.233Z,97642.09
2018-02-14T11:14:51.213Z,97644.13
2018-02-14T11:17:22.162Z,97638.75
2018-02-14T11:19:53.105Z,97645.48
2018-02-14T11:22:24.139Z,97645.34
2018-02-14T11:24:55.107Z,97644.45
2018-02-14T11:27:26.148Z,97649.86
2018-02-14T11:29:57.153Z,97650.41
2018-02-14T11:32:28.126Z,97649.72
2018-02-14T11:34:59.109Z,97659.27
2018-02-14T11:37:30.089Z,97655.30
2018-02-14T11:40:01.073Z,97656.31
2018-02-14T11:42:32.024Z,97652.41
2018-02-14T11:45:03.047Z,97656.44
2018-02-14T11:47:34.093Z,97664.81
2018-02-14T11:50:05.127Z,97660.63
2018-02-14T11:52:36.088Z,97667.01
2018-02-14T11:55:07.099Z,97670.09
2018-02-14T11:57:38.131Z,97673.41
2018-02-14T12:00:09.115Z,97676.31
2018-02-14T12:02:40.101Z,97677.52
2018-02-14T12:05:11.064Z,97675.25
2018-02-14T12:07:42.078Z,97683.45
2018-02-14T12:10:13.064Z,97683.20
2018-02-14T12:12:44.043Z,97692.24
2018-02-14T12:15:15.037Z,97698.80
2018-02-14T12:17:46.027Z,97692.70
2018-02-14T12:20:17.044Z,97699.71
2018-02-14T12:22:48.092Z,97696.69
2018-02-14T12:25:19.121Z,97697.66
2018-02-14T12:27:50.181Z,97698.13
2018-02-14T12:30:21.197Z,97692.27
2018-02-14T12:32:52.216Z,97691.66
2018-02-14T12:35:23.241Z,97691.54
2018-02-14T12:37:54.243Z,97689.69
2018-02-14T12:40:25.254Z,97695.16
2018-02-14T12:42:56.210Z,97688.19
2018-02-14T12:45:27.181Z,97687.05
2018-02-14T12:47:58.166Z,97691.61
2018-02-14T12:50:29.167Z,97687.73
2018-02-14T12:53:00.159Z,97684.66
2018-02-14T12:55:31.151Z,97668.97
2018-02-14T12:58:02.170Z,97673.06
2018-02-14T13:00:33.180Z,97673.11
2018-02-14T13:03:04.197Z,97680.39
2018-02-14T13:05:35.264Z,97677.41
2018-02-14T13:08:06.249Z,97675.16
2018-02-14T13:10:37.269Z,97679.05
2018-02-14T13:13:08.281Z,97669.83
2018-02-14T13:15:39.271Z,97668.36
2018-02-14T13:18:10.254Z,97664.10
2018-02-14T13:20:41.261Z,97650.14
2018-02-14T13:23:12.225Z,97649.74
2018-02-14T13:25:43.248Z,97646.16
2018-02-14T13:28:14.248Z,97650.23
2018-02-14T13:30:45.222Z,97654.03
2018-02-14T13:33:16.230Z,97646.11
2018-02-14T13:35:47.207Z,97646.81
2018-02-14T13:38:18.230Z,97653.29
2018-02-14T13:40:49.226Z,97658.27
2018-02-14T13:43:20.261Z,97651.58
2018-02-14T13:45:51.264Z,97652.51
2018-02-14T13:48:22.273Z,97649.87
2018-02-14T13:50:53.243Z,97660.89
2018-02-14T13:53:24.225Z,97661.48
2018-02-14T13:55:55.258Z,97660.64
2018-02-14T13:58:26.218Z,97661.33
2018-02-14T14:00:57.282Z,97673.23
2018-02-14T14:03:28.276Z,97673.68
2018-02-14T14:05:59.245Z,97670.00
2018-02-14T14:08:30.254Z,97674.27
2018-02-14T14:11:01.269Z,97669.13
2018-02-14T14:13:32.300Z,97668.84
2018-02-14T14:16:03.354Z,97674.12
2018-02-14T14:18:34.385Z,97681.78
2018-02-14T14:21:05.409Z,97678.31
2018-02-14T14:23:36.439Z,97680.44
2018-02-14T14:26:07.445Z,97683.81
2018-02-14T14:28:38.481Z,97682.13
2018-02-14T14:31:09.494Z,97686.41
2018-02-14T14:33:40.466Z,97686.08
2018-02-14T14:36:11.500Z,97690.59
2018-02-14T14:38:42.444Z,97691.81
2018-02-14T14:41:13.624Z,97690.91
2018-02-14T14:43:44.644Z,97690.92
2018-02-14T14:46:15.673Z,97699.32
2018-02-14T14:48:46.651Z,97703.64
2018-02-14T14:51:17.618Z,97705.98
2018-02-14T14:53:48.657Z,97706.03
2018-02-14T14:56:19.665Z,97708.05
2018-02-14T14:58:50.704Z,97702.11
2018-02-14T15:01:21.709Z,97708.45
2018-02-14T15:03:52.720Z,97707.66
2018-02-14T15:06:23.762Z,97705.65
2018-02-14T15:08:54.717Z,97707.19
2018-02-14T15:11:25.744Z,97710.50
2018-02-14T15:13:56.730Z,97712.81
2018-02-14T15:16:27.694Z,97710.44
2018-02-14T15:18:58.680Z,97711.95
2018-02-14T15:21:29.670Z,97723.13
2018-02-14T15:24:00.709Z,97723.73
2018-02-14T15:26:31.720Z,97726.39
2018-02-14T15:29:02.688Z,97728.91
2018-02-14T15:31:34.741Z,97736.36
2018-02-14T15:34:05.798Z,97728.64
2018-02-14T15:36:36.843Z,97735.08
2018-02-14T15:39:07.857Z,97735.80
2018-02-14T15:41:38.849Z,97740.72
2018-02-14T15:44:09.875Z,97741.14
2018-02-14T15:46:40.903Z,97741.86
2018-02-14T15:49:11.868Z,97745.98
2018-02-14T15:51:42.875Z,97744.59
2018-02-14T15:54:13.967Z,97744.69
2018-02-14T15:56:44.972Z,97754.13
2018-02-14T15:59:15.971Z,97745.83
2018-02-14T16:01:46.955Z,97746.42
2018-02-14T16:04:17.997Z,97755.03
2018-02-14T16:06:48.967Z,97752.42
2018-02-14T16:09:19.963Z,97750.34
2018-02-14T16:11:50.951Z,97751.22
2018-02-14T16:14:21.985Z,97754.64
2018-02-14T16:16:52.971Z,97750.53
2018-02-14T16:19:23.939Z,97749.82
2018-02-14T16:21:54.959Z,97751.73
2018-02-14T16:24:25.961Z,97749.80
2018-02-14T16:26:56.976Z,97757.30
2018-02-14T16:29:27.983Z,97759.70
2018-02-14T16:31:58.993Z,97764.48
2018-02-14T16:34:32.415Z,97771.69
2018-02-14T16:37:03.491Z,97771.64
2018-02-14T16:39:34.585Z,97775.12
2018-02-14T16:42:05.660Z,97778.38
2018-02-14T16:44:36.629Z,97781.97
2018-02-14T16:47:07.645Z,97779.75
2018-02-14T16:49:38.673Z,97784.20
2018-02-14T16:52:09.660Z,97790.40
2018-02-14T16:54:40.698Z,97791.27
2018-02-14T16:57:11.664Z,97789.44
2018-02-14T16:59:42.648Z,97799.80
2018-02-14T17:02:13.621Z,97808.09
2018-02-14T17:04:44.631Z,97809.36
2018-02-14T17:07:15.716Z,97805.67
2018-02-14T17:09:46.717Z,97814.47
2018-02-14T17:12:17.714Z,97811.15
2018-02-14T17:14:48.706Z,97812.05
2018-02-14T17:17:20.356Z,97816.34
2018-02-14T17:19:51.353Z,97817.61
2018-02-14T17:22:22.311Z,97823.88
2018-02-14T17:24:53.282Z,97821.37
2018-02-14T17:27:24.262Z,97820.73
2018-02-14T17:29:55.254Z,97820.06
2018-02-14T17:32:26.285Z,97824.62
2018-02-14T17:34:57.322Z,97833.08
2018-02-14T17:37:28.345Z,97833.22
2018-02-14T17:39:59.361Z,97834.50
2018-02-14T17:42:30.403Z,97832.09
2018-02-14T17:45:01.403Z,97831.77
2018-02-14T17:47:32.393Z,97831.03
2018-02-14T17:50:03.457Z,97838.38
2018-02-14T17:52:34.451Z,97846.44
2018-02-14T17:55:05.478Z,97842.66
2018-02-14T17:57:36.545Z,97838.13
2018-02-14T18:00:07.607Z,97842.88
2018-02-14T18:02:38.591Z,97838.78
2018-02-14T18:05:09.661Z,97838.88
2018-02-14T18:07:40.736Z,97841.66
2018-02-14T18:10:13.714Z,97852.94
2018-02-14T18:12:44.803Z,97859.34
2018-02-14T18:15:15.825Z,97864.23
2018-02-14T18:17:46.796Z,97866.02
2018-02-14T18:20:17.869Z,97871.70
2018-02-14T18:22:48.845Z,97872.13
2018-02-14T18:25:19.882Z,97875.05
2018-02-14T18:27:50.976Z,97877.41
2018-02-14T18:30:22.006Z,97874.78
2018-02-14T18:32:53.027Z,97881.40
2018-02-14T18:35:24.052Z,97871.39
2018-02-14T18:37:55.036Z,97875.81
2018-02-14T18:40:26.052Z,97871.00
2018-02-14T18:42:57.041Z,97880.27
2018-02-14T18:45:28.058Z,97879.95
2018-02-14T18:47:59.144Z,97881.94
2018-02-14T18:50:30.133Z,97887.08
2018-02-14T18:53:01.130Z,97880.50
2018-02-14T18:55:32.860Z,97888.13
2018-02-14T18:58:03.840Z,97890.45
2018-02-14T19:00:34.851Z,97895.81
2018-02-14T19:03:05.860Z,97900.11
2018-02-14T19:05:36.816Z,97903.77
2018-02-14T19:08:07.831Z,97911.85
2018-02-14T19:10:38.778Z,97912.52
2018-02-14T19:13:09.776Z,97916.26
2018-02-14T19:15:40.794Z,97912.27
2018-02-14T19:18:11.791Z,97912.96
2018-02-14T19:20:42.817Z,97913.48
2018-02-14T19:23:13.805Z,97915.34
2018-02-14T19:25:44.802Z,97915.48
2018-02-14T19:28:15.833Z,97920.15
2018-02-14T19:30:46.901Z,97923.08
2018-02-14T19:33:17.904Z,97925.12
2018-02-14T19:35:48.935Z,97917.55
2018-02-14T19:38:19.907Z,97925.89
2018-02-14T19:40:50.897Z,97921.77
2018-02-14T19:43:21.929Z,97921.36
2018-02-14T19:45:52.939Z,97924.53
2018-02-14T19:48:23.937Z,97930.58
2018-02-14T19:50:54.956Z,97933.10
2018-02-14T19:53:25.953Z,97937.68
2018-02-14T19:55:57.173Z,97937.41
2018-02-14T19:58:28.407Z,97929.97
2018-02-14T20:00:59.347Z,97935.31
2018-02-14T20:03:30.356Z,97936.89
2018-02-14T20:06:01.330Z,97941.52
2018-02-14T20:08:32.300Z,97937.08
2018-02-14T20:11:03.336Z,97942.45
2018-02-14T20:13:34.321Z,97949.59
2018-02-14T20:16:05.325Z,97946.04
2018-02-14T20:18:36.314Z,97947.61
2018-02-14T20:21:07.318Z,97951.75
2018-02-14T20:23:38.457Z,97958.39
2018-02-14T20:26:09.488Z,97956.29
2018-02-14T20:28:40.569Z,97969.45
2018-02-14T20:31:11.597Z,97965.72
2018-02-14T20:33:42.616Z,97962.81
2018-02-14T20:36:13.690Z,97954.55
2018-02-14T20:38:44.673Z,97968.72
2018-02-14T20:41:15.658Z,97969.29
2018-02-14T20:43:46.645Z,97969.77
2018-02-14T20:46:17.634Z,97963.66
2018-02-14T20:48:48.607Z,97965.36
2018-02-14T20:51:19.563Z,97960.83
2018-02-14T20:53:50.549Z,97964.27
2018-02-14T20:56:21.527Z,97958.23
2018-02-14T20:58:52.520Z,97965.94
2018-02-14T21:01:24.457Z,97964.67
2018-02-14T21:03:55.435Z,97960.47
2018-02-14T21:06:26.421Z,97960.47
2018-02-14T21:08:57.409Z,97962.12
2018-02-14T21:11:28.424Z,97971.44
2018-02-14T21:13:59.430Z,97974.11
2018-02-14T21:16:30.437Z,97967.98
2018-02-14T21:19:01.447Z,97972.87
2018-02-14T21:21:32.425Z,97975.06
2018-02-14T21:24:03.512Z,97970.53
2018-02-14T21:26:34.455Z,97963.97
2018-02-14T21:29:05.464Z,97961.39
2018-02-14T21:31:36.410Z,97961.58
2018-02-14T21:34:10.224Z,97958.10
2018-02-14T21:36:41.186Z,97959.83
2018-02-14T21:39:12.223Z,97961.45
2018-02-14T21:41:43.217Z,97955.41
2018-02-14T21:44:14.245Z,97947.40
2018-02-14T21:46:45.179Z,97946.55
2018-02-14T21:49:16.201Z,97941.77
2018-02-14T21:51:47.196Z,97948.92
2018-02-14T21:54:18.165Z,97944.47
2018-02-14T21:56:49.204Z,97943.33
2018-02-14T21:59:20.203Z,97938.34
2018-02-14T22:01:51.180Z,97941.02
2018-02-14T22:04:22.184Z,97924.76
2018-02-14T22:06:53.139Z,97920.55
2018-02-14T22:09:24.086Z,97919.50
2018-02-14T22:11:55.108Z,97919.29
2018-02-14T22:14:26.055Z,97925.03
2018-02-14T22:16:57.070Z,97925.55
2018-02-14T22:19:28.065Z,97922.03
2018-02-14T22:21:59.039Z,97921.98
2018-02-14T22:24:30.004Z,97914.87
2018-02-14T22:27:01.004Z,97914.97
2018-02-14T22:29:31.996Z,97918.28
2018-02-14T22:32:02.990Z,97919.84
2018-02-14T22:34:34.036Z,97924.37
2018-02-14T22:37:05.026Z,97927.44
2018-02-14T22:39:36.073Z,97936.77
2018-02-14T22:42:07.029Z,97934.55
2018-02-14T22:44:38.097Z,97926.09
2018-02-14T22:47:09.116Z,97925.36
2018-02-14T22:49:40.093Z,97917.77
2018-02-14T22:52:11.105Z,97913.72
2018-02-14T22:54:42.088Z,97914.04
2018-02-14T22:57:13.089Z,97914.72
2018-02-14T22:59:44.059Z,97910.91
2018-02-14T23:02:15.102Z,97907.76
2018-02-14T23:04:46.127Z,97903.42
2018-02-14T23:07:17.201Z,97907.78
2018-02-14T23:09:48.178Z,97914.81
2018-02-14T23:12:19.147Z,97921.11
2018-02-14T23:14:50.163Z,97926.69
2018-02-14T23:17:21.166Z,97932.28
2018-02-14T23:19:52.183Z,97931.62
2018-02-14T23:22:23.148Z,97928.72
2018-02-14T23:24:54.163Z,97924.62
2018-02-14T23:27:25.185Z,97927.36
2018-02-14T23:29:56.199Z,97923.48
2018-02-14T23:32:27.222Z,97915.34
2018-02-14T23:34:58.193Z,97901.92
2018-02-14T23:37:29.223Z,97897.31
2018-02-14T23:40:00.212Z,97902.43
2018-02-14T23:42:31.265Z,97898.54
2018-02-14T23:45:02.357Z,97907.13
2018-02-14T23:47:33.347Z,97901.38
2018-02-14T23:50:04.309Z,97897.28
2018-02-14T23:52:35.316Z,97898.08
2018-02-14T23:55:06.295Z,97893.72
2018-02-14T23:57:37.268Z,97892.43
